Time;durP1;ratioP1;P1;durP2;ratioP2;P2;SDS_P1;SDS_P2;PMS_P1;PMS_P2;Temp;Humidity;BMP_temperature;BMP_pressure;BME280_temperature;BME280_humidity;BME280_pressure;Samples;Min_cycle;Max_cycle;Signal;HPM_P1;HPM_P2
2023/07/29 00:02:16;;;;;;;4.57;4.28;;;;;;;15.19;100.00;94668.34;4989811;28;20022;-88
2023/07/29 00:04:42;;;;;;;5.03;3.65;;;;;;;15.00;100.00;94658.78;4988228;28;20373;-88
2023/07/29 00:07:07;;;;;;;4.22;3.83;;;;;;;15.06;100.00;94676.22;4989062;28;20427;-89
2023/07/29 00:09:33;;;;;;;4.75;4.30;;;;;;;14.91;100.00;94670.44;4989103;28;20034;-89
2023/07/29 00:11:58;;;;;;;7.32;4.68;;;;;;;14.84;100.00;94675.66;4990000;28;20244;-89
2023/07/29 00:14:24;;;;;;;4.97;4.30;;;;;;;14.80;100.00;94678.91;4989428;28;20023;-89
2023/07/29 00:16:49;;;;;;;4.88;4.32;;;;;;;14.71;100.00;94680.91;4991186;28;20030;-90
2023/07/29 00:19:15;;;;;;;4.07;3.78;;;;;;;14.80;100.00;94679.72;4989136;28;20065;-87
2023/07/29 00:21:41;;;;;;;4.43;4.13;;;;;;;14.73;100.00;94666.69;4990147;28;20026;-89
2023/07/29 00:24:06;;;;;;;4.63;4.22;;;;;;;14.90;100.00;94684.50;4988511;28;20395;-89
2023/07/29 00:26:32;;;;;;;4.55;4.15;;;;;;;15.03;100.00;94672.22;4989094;28;20121;-88
2023/07/29 00:28:58;;;;;;;6.03;4.20;;;;;;;14.84;100.00;94674.84;4991502;28;20026;-85
2023/07/29 00:33:58;;;;;;;5.00;4.60;;;;;;;14.34;100.00;94684.94;5147378;23;20088;-87
2023/07/29 00:36:24;;;;;;;4.85;4.50;;;;;;;14.51;100.00;94696.53;5009383;28;20030;-85
2023/07/29 00:38:49;;;;;;;4.93;4.53;;;;;;;14.54;100.00;94684.94;5009242;28;20026;-87
2023/07/29 00:41:15;;;;;;;5.80;4.68;;;;;;;14.53;100.00;94681.53;5008992;28;20030;-87
2023/07/29 00:43:40;;;;;;;4.75;4.35;;;;;;;14.75;100.00;94682.09;5007359;28;20458;-88
2023/07/29 00:46:07;;;;;;;7.40;4.88;;;;;;;14.80;100.00;94673.69;5008961;28;20113;-88
2023/07/29 00:48:32;;;;;;;5.25;4.57;;;;;;;14.70;100.00;94674.88;5008311;28;20030;-89
2023/07/29 00:50:58;;;;;;;4.57;4.18;;;;;;;14.73;100.00;94684.13;5009085;28;20049;-88
2023/07/29 00:53:23;;;;;;;5.00;4.60;;;;;;;14.76;100.00;94691.53;5008332;28;20391;-88
2023/07/29 00:55:49;;;;;;;4.88;4.43;;;;;;;14.80;100.00;94684.91;5009227;28;20528;-88
2023/07/29 00:58:14;;;;;;;5.40;4.90;;;;;;;14.87;100.00;94680.47;5008263;28;20030;-88
2023/07/29 01:00:40;;;;;;;4.70;4.30;;;;;;;14.72;100.00;94667.69;5007476;28;20397;-88
2023/07/29 01:03:05;;;;;;;4.45;4.15;;;;;;;14.71;100.00;94673.06;5009021;28;20531;-88
2023/07/29 01:05:39;;;;;;;4.63;4.32;;;;;;;14.69;100.00;94673.28;5007558;28;20549;-88
2023/07/29 01:08:12;;;;;;;4.78;4.47;;;;;;;14.61;100.00;94662.25;5010627;28;20372;-88
2023/07/29 01:10:54;;;;;;;5.00;4.60;;;;;;;14.61;100.00;94677.91;5010560;28;20018;-88
2023/07/29 01:13:28;;;;;;;4.00;3.70;;;;;;;14.77;100.00;94675.69;5012870;28;20089;-87
2023/07/29 01:16:01;;;;;;;5.30;4.90;;;;;;;14.87;100.00;94659.59;5012883;28;20025;-90
2023/07/29 01:18:30;;;;;;;5.03;4.72;;;;;;;14.70;100.00;94661.06;5011525;28;20060;-86
2023/07/29 01:21:00;;;;;;;4.75;4.32;;;;;;;14.32;100.00;94680.91;5011442;28;20025;-88
2023/07/29 01:23:31;;;;;;;4.90;4.60;;;;;;;14.16;100.00;94688.09;5010139;28;20040;-90
2023/07/29 01:25:57;;;;;;;5.00;4.60;;;;;;;14.06;100.00;94684.28;5036352;28;20022;-86
2023/07/29 01:28:23;;;;;;;5.20;4.60;;;;;;;14.01;100.00;94678.84;5037104;28;20021;-86
2023/07/29 01:30:51;;;;;;;5.13;4.57;;;;;;;14.18;100.00;94680.09;5033289;28;20033;-88
2023/07/29 01:33:17;;;;;;;7.90;5.03;;;;;;;14.16;100.00;94682.06;5030780;28;20052;-87
2023/07/29 01:35:46;;;;;;;5.55;5.10;;;;;;;14.09;100.00;94687.31;5031892;28;20402;-88
2023/07/29 01:38:31;;;;;;;4.82;4.43;;;;;;;14.15;100.00;94696.13;5032454;28;20045;-88
2023/07/29 01:40:58;;;;;;;5.05;4.65;;;;;;;14.19;100.00;94681.69;5031211;28;20025;-88
2023/07/29 01:43:25;;;;;;;4.75;4.45;;;;;;;14.08;100.00;94684.88;5031012;28;20025;-88
2023/07/29 01:45:51;;;;;;;5.63;4.70;;;;;;;14.32;100.00;94696.53;5031366;28;20040;-87
2023/07/29 01:48:17;;;;;;;5.68;5.28;;;;;;;13.95;100.00;94703.09;5030524;28;20022;-87
2023/07/29 01:50:42;;;;;;;5.60;5.05;;;;;;;14.09;100.00;94713.34;5032373;28;20029;-89
2023/07/29 01:53:08;;;;;;;5.20;4.80;;;;;;;14.01;100.00;94695.28;5031456;28;20079;-87
2023/07/29 01:55:33;;;;;;;6.43;4.38;;;;;;;14.03;100.00;94695.88;5032137;28;20546;-87
2023/07/29 01:57:59;;;;;;;5.63;5.13;;;;;;;13.82;100.00;94700.44;5031001;28;20030;-87
2023/07/29 02:00:24;;;;;;;5.20;4.80;;;;;;;13.96;100.00;94713.31;5033162;28;20109;-87
2023/07/29 02:02:50;;;;;;;5.70;5.22;;;;;;;13.97;100.00;94714.91;5032205;28;20030;-87
2023/07/29 02:05:15;;;;;;;5.35;4.85;;;;;;;13.94;100.00;94724.91;5034083;28;20022;-86
2023/07/29 02:07:41;;;;;;;5.40;5.00;;;;;;;13.96;100.00;94725.53;5031671;28;20128;-88
2023/07/29 02:10:07;;;;;;;5.28;4.70;;;;;;;14.03;100.00;94721.94;5031589;28;20022;-87
2023/07/29 02:12:33;;;;;;;4.68;4.38;;;;;;;13.91;100.00;94723.50;5031458;28;20033;-89
2023/07/29 02:14:58;;;;;;;5.35;4.85;;;;;;;13.76;100.00;94722.88;5031134;28;20030;-86
2023/07/29 02:17:24;;;;;;;5.38;4.82;;;;;;;13.66;100.00;94727.63;5031722;28;20052;-85
2023/07/29 02:19:49;;;;;;;5.93;4.55;;;;;;;13.79;100.00;94726.88;5031883;28;20156;-86
2023/07/29 02:22:17;;;;;;;5.60;5.10;;;;;;;13.82;100.00;94716.06;5031541;28;20048;-89
2023/07/29 02:24:42;;;;;;;8.32;4.95;;;;;;;13.72;100.00;94726.84;5028995;28;20103;-87
2023/07/29 02:27:08;;;;;;;5.40;4.88;;;;;;;13.65;100.00;94726.84;5032151;28;20061;-86
2023/07/29 02:29:33;;;;;;;4.90;4.50;;;;;;;13.66;100.00;94730.25;5033170;28;20030;-87
2023/07/29 02:31:59;;;;;;;6.93;4.95;;;;;;;13.54;100.00;94735.22;5033786;28;20453;-84
2023/07/29 02:34:25;;;;;;;5.43;4.90;;;;;;;13.44;100.00;94733.97;5049635;28;20029;-83
2023/07/29 02:39:26;;;;;;;6.53;4.75;;;;;;;13.44;100.00;94752.16;5303945;23;20062;-84
2023/07/29 02:54:47;;;;;;;5.80;5.32;;;;;;;13.17;100.00;94772.81;6031572;23;20012;-83
2023/07/29 02:57:13;;;;;;;5.90;5.50;;;;;;;13.10;100.00;94784.16;5034326;28;20052;-82
2023/07/29 03:02:27;;;;;;;5.95;5.18;;;;;;;13.15;100.00;94787.81;5799138;22;20046;-86
2023/07/29 03:04:52;;;;;;;7.55;4.63;;;;;;;13.13;100.00;94789.78;4997566;28;20404;-84
2023/07/29 03:07:18;;;;;;;5.47;5.07;;;;;;;13.12;100.00;94785.59;5014661;28;20029;-86
2023/07/29 03:09:44;;;;;;;5.80;5.25;;;;;;;13.29;100.00;94787.91;5013057;28;20240;-89
2023/07/29 03:12:10;;;;;;;4.90;4.47;;;;;;;13.38;100.00;94777.16;5011361;28;20033;-88
2023/07/29 03:14:35;;;;;;;5.93;4.70;;;;;;;13.40;100.00;94774.34;5010224;28;20022;-89
2023/07/29 03:17:04;;;;;;;6.20;4.97;;;;;;;13.40;100.00;94771.75;5013228;28;20076;-90
2023/07/29 03:19:30;;;;;;;5.50;5.10;;;;;;;13.49;100.00;94784.41;4995742;28;20029;-89
2023/07/29 03:21:55;;;;;;;6.30;5.80;;;;;;;13.47;100.00;94783.00;5010632;28;20042;-89
2023/07/29 03:24:21;;;;;;;6.18;5.63;;;;;;;13.58;100.00;94783.25;5011182;28;20029;-90
2023/07/29 03:26:46;;;;;;;5.45;4.93;;;;;;;13.45;100.00;94792.81;5011166;28;20026;-89
2023/07/29 03:29:12;;;;;;;6.05;5.50;;;;;;;13.46;100.00;94791.78;5010607;28;20026;-88
2023/07/29 03:31:38;;;;;;;5.70;5.30;;;;;;;13.78;100.00;94785.13;5009687;28;20496;-90
2023/07/29 03:34:03;;;;;;;5.35;4.95;;;;;;;13.81;100.00;94764.72;5010323;28;20040;-89
2023/07/29 03:36:29;;;;;;;6.25;4.90;;;;;;;13.83;100.00;94769.75;5009209;28;20030;-90
2023/07/29 03:38:55;;;;;;;5.97;5.38;;;;;;;13.83;100.00;94773.16;5010092;28;20033;-90
2023/07/29 03:41:20;;;;;;;8.13;4.47;;;;;;;13.81;100.00;94772.53;5009973;28;20025;-90
2023/07/29 03:43:45;;;;;;;6.70;5.35;;;;;;;13.93;100.00;94783.22;5011643;28;20510;-90
2023/07/29 03:46:11;;;;;;;5.03;4.63;;;;;;;13.84;100.00;94781.78;5010158;28;20103;-89
2023/07/29 03:48:36;;;;;;;5.22;4.82;;;;;;;13.81;100.00;94764.72;5012415;28;20106;-88
2023/07/29 03:51:02;;;;;;;5.72;5.22;;;;;;;13.95;100.00;94752.56;5011200;28;20037;-89
2023/07/29 03:53:27;;;;;;;4.57;4.28;;;;;;;14.52;100.00;94741.66;5009435;28;20022;-89
2023/07/29 03:55:53;;;;;;;4.85;4.45;;;;;;;15.16;100.00;94707.91;5009777;28;20406;-88
2023/07/29 03:58:18;;;;;;;4.35;3.95;;;;;;;15.62;100.00;94685.09;5009086;28;20052;-86
2023/07/29 04:00:44;;;;;;;4.82;3.95;;;;;;;17.01;100.00;94656.94;5009711;28;20403;-83
2023/07/29 04:03:09;;;;;;;4.13;3.75;;;;;;;17.50;100.00;94649.94;5008404;28;20053;-83
2023/07/29 04:05:35;;;;;;;4.85;3.47;;;;;;;17.99;100.00;94643.63;5007819;28;20491;-83
2023/07/29 04:08:00;;;;;;;3.55;3.22;;;;;;;18.84;100.00;94621.31;5008029;28;20026;-85
2023/07/29 04:10:26;;;;;;;5.60;3.10;;;;;;;19.51;100.00;94626.91;5007638;28;20018;-85
2023/07/29 04:12:51;;;;;;;3.40;3.17;;;;;;;20.21;100.00;94622.91;5008062;28;20497;-84
2023/07/29 04:15:17;;;;;;;3.70;3.40;;;;;;;20.71;96.12;94619.53;4989955;28;20037;-83
2023/07/29 04:17:42;;;;;;;4.47;4.03;;;;;;;21.01;91.67;94615.47;5008287;28;20054;-82
2023/07/29 04:20:08;;;;;;;3.45;3.25;;;;;;;20.81;91.59;94612.56;5007478;28;20033;-84
2023/07/29 04:22:34;;;;;;;3.83;3.42;;;;;;;20.20;94.74;94607.38;5007794;28;20097;-84
2023/07/29 04:24:59;;;;;;;3.58;3.28;;;;;;;21.07;91.42;94618.16;5007778;28;20087;-84
2023/07/29 04:27:25;;;;;;;4.80;2.63;;;;;;;21.78;86.06;94618.00;5006994;28;20058;-82
2023/07/29 04:29:50;;;;;;;3.38;3.08;;;;;;;22.28;83.47;94615.09;5008153;28;20026;-83
2023/07/29 04:32:15;;;;;;;3.17;2.97;;;;;;;22.89;79.29;94608.41;4989385;28;20018;-83
2023/07/29 04:34:41;;;;;;;5.55;3.78;;;;;;;23.55;74.99;94606.91;5007859;28;20033;-81
2023/07/29 04:37:06;;;;;;;3.60;3.30;;;;;;;24.13;72.43;94612.91;5006989;28;20033;-84
2023/07/29 04:39:33;;;;;;;4.55;3.17;;;;;;;24.40;71.69;94615.31;5007687;28;20127;-85
2023/07/29 04:41:58;;;;;;;2.58;2.38;;;;;;;24.73;68.89;94620.03;5007038;28;20040;-84
2023/07/29 04:44:24;;;;;;;2.72;2.53;;;;;;;25.85;64.23;94624.00;5007097;28;20025;-85
2023/07/29 04:46:49;;;;;;;4.70;2.78;;;;;;;26.29;60.74;94615.28;5007659;28;20037;-85
2023/07/29 04:49:15;;;;;;;3.13;2.85;;;;;;;26.07;61.23;94623.63;5006760;28;20025;-85
2023/07/29 04:51:40;;;;;;;4.63;2.50;;;;;;;25.61;66.32;94631.81;5007907;28;20029;-85
2023/07/29 04:54:05;;;;;;;2.92;2.65;;;;;;;25.72;64.86;94629.13;4988823;28;20038;-82
2023/07/29 04:56:31;;;;;;;3.45;2.53;;;;;;;26.41;62.95;94631.66;5007620;28;20080;-85
2023/07/29 04:58:56;;;;;;;3.35;2.65;;;;;;;26.10;64.63;94634.47;5007938;28;20053;-85
2023/07/29 05:01:22;;;;;;;2.50;2.40;;;;;;;26.89;60.65;94628.09;4990130;28;20096;-83
2023/07/29 05:03:47;;;;;;;2.60;2.40;;;;;;;27.03;62.12;94634.34;4989521;28;20537;-86
2023/07/29 05:06:13;;;;;;;3.13;2.20;;;;;;;27.53;60.34;94634.91;5006848;28;20030;-84
2023/07/29 05:08:38;;;;;;;3.90;2.53;;;;;;;27.50;61.91;94641.59;5007618;28;20026;-83
2023/07/29 05:11:03;;;;;;;3.22;2.20;;;;;;;27.93;57.37;94644.28;5006717;28;20100;-83
2023/07/29 05:13:29;;;;;;;3.67;2.30;;;;;;;29.02;53.46;94650.13;4989868;28;20030;-83
2023/07/29 05:15:54;;;;;;;2.77;2.53;;;;;;;28.17;53.93;94637.81;5006729;28;20028;-83
2023/07/29 05:18:20;;;;;;;4.83;2.33;;;;;;;28.49;55.73;94645.09;5007124;28;20030;-84
2023/07/29 05:20:46;;;;;;;2.97;2.70;;;;;;;29.90;48.51;94649.84;5007088;28;20033;-84
2023/07/29 05:23:12;;;;;;;2.10;2.00;;;;;;;30.33;46.20;94648.38;5006968;28;20511;-83
2023/07/29 05:25:38;;;;;;;2.73;2.53;;;;;;;31.10;44.51;94650.06;5007320;28;20084;-84
2023/07/29 05:28:03;;;;;;;2.90;2.13;;;;;;;31.28;42.48;94646.38;5006929;28;20110;-84
2023/07/29 05:30:33;;;;;;;2.23;2.13;;;;;;;31.18;44.54;94650.09;5007404;28;20486;-84
2023/07/29 05:32:59;;;;;;;2.83;2.30;;;;;;;32.59;41.04;94650.69;4989823;28;20105;-83
2023/07/29 05:35:25;;;;;;;3.35;2.40;;;;;;;32.65;39.56;94652.16;5007695;28;20025;-83
2023/07/29 05:37:50;;;;;;;4.43;2.40;;;;;;;33.61;38.10;94643.59;4989446;28;20030;-83
2023/07/29 05:40:16;;;;;;;2.33;2.13;;;;;;;32.84;39.67;94647.22;4990013;28;20030;-84
2023/07/29 05:42:42;;;;;;;;;;;;;;;33.76;38.09;94642.25;5007525;28;20069;-83
2023/07/29 05:45:08;;;;;;;3.25;2.60;;;;;;;33.10;39.34;94644.53;5006698;28;20020;-82
2023/07/29 05:47:33;;;;;;;2.13;2.00;;;;;;;33.65;39.13;94641.81;5007011;28;20033;-83
2023/07/29 05:50:01;;;;;;;2.30;2.10;;;;;;;34.12;37.87;94645.25;5006579;28;20022;-84
2023/07/29 05:52:27;;;;;;;4.00;2.60;;;;;;;34.81;36.22;94650.91;4990965;28;20045;-84
2023/07/29 05:54:52;;;;;;;2.40;2.20;;;;;;;34.91;37.02;94655.09;5009973;28;20568;-84
2023/07/29 05:57:18;;;;;;;2.97;2.60;;;;;;;34.91;37.56;94652.41;5011024;28;20054;-83
2023/07/29 05:59:43;;;;;;;7.47;2.40;;;;;;;35.29;36.84;94652.19;5010160;28;20496;-85
2023/07/29 06:02:09;;;;;;;4.47;2.30;;;;;;;35.56;36.35;94653.47;5010410;28;20050;-85
2023/07/29 06:04:34;;;;;;;2.60;2.40;;;;;;;35.71;36.22;94661.72;5010320;28;20119;-84
2023/07/29 06:07:00;;;;;;;2.95;2.00;;;;;;;35.85;35.53;94662.19;5010321;28;20116;-87
2023/07/29 06:09:25;;;;;;;2.40;2.20;;;;;;;35.27;35.70;94665.22;5010764;28;20100;-83
2023/07/29 06:11:51;;;;;;;2.17;2.00;;;;;;;36.13;33.60;94656.91;5009851;28;20339;-85
2023/07/29 06:14:16;;;;;;;2.47;2.25;;;;;;;35.91;34.62;94665.44;4993694;28;20100;-85
2023/07/29 06:16:42;;;;;;;2.15;1.95;;;;;;;36.61;32.99;94661.44;4992169;28;20034;-85
2023/07/29 06:19:08;;;;;;;2.47;2.33;;;;;;;36.63;34.30;94659.22;5010814;28;20117;-88
2023/07/29 06:21:34;;;;;;;4.22;2.95;;;;;;;36.96;33.65;94653.56;4992905;28;20037;-86
2023/07/29 06:24:00;;;;;;;4.90;4.40;;;;;;;36.48;34.47;94657.19;4993068;28;20034;-87
2023/07/29 06:26:25;;;;;;;4.70;4.30;;;;;;;36.28;34.01;94644.66;4992528;28;20114;-91
2023/07/29 06:28:50;;;;;;;6.07;3.47;;;;;;;36.03;34.29;94643.09;5023101;28;20033;-85
2023/07/29 06:31:16;;;;;;;3.67;3.38;;;;;;;36.46;34.10;94637.84;5022831;28;20022;-86
2023/07/29 06:33:41;;;;;;;3.40;3.10;;;;;;;34.34;37.57;94642.25;4993383;28;20022;-86
2023/07/29 06:36:06;;;;;;;4.90;2.92;;;;;;;32.75;40.21;94645.66;5011062;28;20026;-86
2023/07/29 06:38:32;;;;;;;4.10;2.72;;;;;;;32.10;42.00;94640.41;5009552;28;20049;-86
2023/07/29 06:40:57;;;;;;;3.60;2.33;;;;;;;31.39;41.59;94634.31;5010267;28;20103;-84
2023/07/29 06:43:23;;;;;;;2.57;2.33;;;;;;;31.65;44.61;94643.25;4992360;28;20026;-83
2023/07/29 06:45:48;;;;;;;2.40;2.20;;;;;;;32.10;43.03;94635.84;5010015;28;20121;-87
2023/07/29 06:48:14;;;;;;;2.23;2.00;;;;;;;34.66;37.74;94635.38;4992822;28;20388;-90
2023/07/29 06:50:39;;;;;;;2.23;2.03;;;;;;;35.86;35.05;94627.91;4992363;28;20434;-87
2023/07/29 06:53:05;;;;;;;3.50;1.83;;;;;;;37.03;33.29;94632.16;4992677;28;20117;-90
2023/07/29 06:55:31;;;;;;;2.30;2.15;;;;;;;36.81;33.47;94619.97;4992361;28;20562;-87
2023/07/29 06:57:56;;;;;;;3.35;2.38;;;;;;;36.53;32.96;94632.69;4992124;28;20164;-87
2023/07/29 07:00:22;;;;;;;2.65;2.40;;;;;;;36.13;33.27;94621.03;4991843;28;20033;-91
2023/07/29 07:02:47;;;;;;;2.63;2.42;;;;;;;36.27;33.56;94619.56;5009734;28;20112;-89
2023/07/29 07:05:13;;;;;;;4.30;2.90;;;;;;;36.32;33.08;94623.91;5009370;28;20084;-85
2023/07/29 07:07:38;;;;;;;4.32;2.70;;;;;;;33.60;36.87;94612.44;4992052;28;20029;-87
2023/07/29 07:10:04;;;;;;;2.88;2.65;;;;;;;31.82;40.62;94613.81;4991786;28;20413;-85
2023/07/29 07:12:30;;;;;;;3.30;2.40;;;;;;;31.25;42.94;94609.50;5008962;28;20037;-88
2023/07/29 07:14:55;;;;;;;3.92;2.65;;;;;;;31.69;42.79;94612.03;5009884;28;20407;-90
2023/07/29 07:17:20;;;;;;;4.05;2.88;;;;;;;30.33;42.23;94604.78;4991214;28;20087;-83
2023/07/29 07:19:46;;;;;;;2.85;2.38;;;;;;;31.20;45.42;94606.97;5009724;28;20034;-88
2023/07/29 07:22:12;;;;;;;2.42;2.22;;;;;;;31.48;44.01;94607.53;5009346;28;20022;-89
2023/07/29 07:24:37;;;;;;;2.60;2.40;;;;;;;30.68;44.35;94609.34;5009380;28;20022;-88
2023/07/29 07:27:03;;;;;;;3.42;2.80;;;;;;;30.92;45.18;94603.63;5009102;28;20037;-90
2023/07/29 07:29:29;;;;;;;2.70;2.50;;;;;;;30.83;44.40;94614.28;4991489;28;20033;-87
2023/07/29 07:31:56;;;;;;;4.07;2.58;;;;;;;30.83;46.13;94614.28;5009000;28;20026;-88
2023/07/29 07:34:22;;;;;;;2.72;2.53;;;;;;;30.28;44.13;94607.56;5008699;28;20026;-86
2023/07/29 07:36:48;;;;;;;3.03;2.72;;;;;;;30.83;44.57;94608.94;5010194;28;20038;-87
2023/07/29 07:39:13;;;;;;;2.80;2.60;;;;;;;31.10;46.08;94615.25;5009036;28;20143;-89
2023/07/29 07:41:39;;;;;;;2.72;2.50;;;;;;;31.23;44.64;94607.16;4992282;28;20025;-88
2023/07/29 07:44:04;;;;;;;3.92;2.47;;;;;;;30.76;45.06;94623.88;5009400;28;20183;-90
2023/07/29 07:46:30;;;;;;;4.32;2.22;;;;;;;30.73;44.21;94614.53;5009611;28;20048;-89
2023/07/29 07:48:55;;;;;;;3.90;2.42;;;;;;;31.13;44.16;94628.03;5008980;28;20017;-87
2023/07/29 07:51:21;;;;;;;3.40;2.60;;;;;;;31.17;45.39;94618.31;4991574;28;20053;-89
2023/07/29 07:53:46;;;;;;;3.20;2.60;;;;;;;30.48;44.72;94623.19;4991443;28;20030;-86
2023/07/29 07:56:11;;;;;;;5.55;2.75;;;;;;;30.80;45.89;94619.47;5008352;28;20153;-93
2023/07/29 07:58:38;;;;;;;4.78;3.50;;;;;;;30.84;42.78;94621.25;4991943;28;20041;-87
2023/07/29 08:01:04;;;;;;;3.90;3.60;;;;;;;31.09;43.62;94614.47;4974586;28;20052;-89
2023/07/29 08:03:30;;;;;;;6.63;4.65;;;;;;;30.21;41.70;94615.25;5009034;28;20104;-88
2023/07/29 08:05:56;;;;;;;5.65;5.20;;;;;;;30.10;44.31;94601.31;4990712;28;20030;-90
2023/07/29 08:08:21;;;;;;;4.00;3.63;;;;;;;31.04;43.08;94600.44;5008905;28;20055;-94
2023/07/29 08:10:47;;;;;;;4.20;3.90;;;;;;;31.27;41.69;94605.41;5008861;28;20022;-87
2023/07/29 08:13:12;;;;;;;3.45;3.15;;;;;;;30.63;43.02;94600.66;4990542;28;20030;-90
2023/07/29 08:15:38;;;;;;;3.95;2.92;;;;;;;29.75;43.71;94602.03;4991352;28;20068;-90
2023/07/29 08:18:03;;;;;;;3.03;2.83;;;;;;;30.75;43.34;94614.25;5008342;28;20033;-88
2023/07/29 08:20:28;;;;;;;2.97;2.75;;;;;;;30.77;42.66;94607.50;4991411;28;20494;-89
2023/07/29 08:22:54;;;;;;;3.38;3.08;;;;;;;30.96;42.94;94588.56;5008733;28;20767;-89
2023/07/29 08:25:19;;;;;;;7.20;2.88;;;;;;;31.03;41.64;94601.53;5008585;28;20041;-90
2023/07/29 08:27:45;;;;;;;2.60;2.40;;;;;;;30.56;40.29;94606.44;5008673;28;20336;-90
2023/07/29 08:30:10;;;;;;;2.75;2.55;;;;;;;30.72;40.58;94596.94;4974509;28;20059;-90
2023/07/29 08:32:36;;;;;;;3.13;2.38;;;;;;;30.63;42.22;94592.63;5008626;28;20033;-87
2023/07/29 08:35:01;;;;;;;2.47;2.00;;;;;;;30.97;39.89;94594.72;5008621;28;20061;-94
2023/07/29 08:37:27;;;;;;;2.38;2.17;;;;;;;30.54;40.62;94600.56;5008408;28;20029;-89
2023/07/29 08:39:53;;;;;;;2.65;2.10;;;;;;;31.27;40.59;94594.69;5007861;28;20040;-91
2023/07/29 08:42:19;;;;;;;2.20;2.10;;;;;;;31.12;40.35;94588.97;5008339;28;20044;-87
2023/07/29 08:44:45;;;;;;;2.55;2.13;;;;;;;31.32;40.18;94588.44;4990490;28;20427;-93
2023/07/29 08:47:13;;;;;;;1.95;1.75;;;;;;;31.16;38.81;94590.72;4990599;28;20033;-89
2023/07/29 08:49:39;;;;;;;1.80;1.70;;;;;;;30.39;38.43;94590.22;5007567;28;20419;-88
2023/07/29 08:52:05;;;;;;;2.58;2.00;;;;;;;30.97;40.08;94581.34;4990064;28;20034;-86
2023/07/29 08:54:30;;;;;;;2.10;1.90;;;;;;;31.00;41.28;94578.06;4990666;28;20096;-91
2023/07/29 08:56:56;;;;;;;2.33;2.13;;;;;;;31.05;39.78;94580.63;4990281;28;20045;-90
2023/07/29 08:59:21;;;;;;;1.92;1.83;;;;;;;31.42;40.03;94577.44;4991179;28;20026;-90
2023/07/29 09:01:47;;;;;;;1.65;1.55;;;;;;;31.42;38.47;94576.66;4973273;28;20065;-88
2023/07/29 09:04:13;;;;;;;1.80;1.70;;;;;;;31.41;38.14;94570.50;4975004;28;20464;-87
2023/07/29 09:06:39;;;;;;;2.45;1.42;;;;;;;31.43;39.79;94568.31;4973497;28;20379;-91
2023/07/29 09:09:07;;;;;;;1.58;1.40;;;;;;;31.47;38.06;94568.50;4991294;28;20026;-93
2023/07/29 09:11:33;;;;;;;5.45;1.80;;;;;;;30.09;38.05;94566.84;4989675;28;20018;-87
2023/07/29 09:13:58;;;;;;;2.30;1.60;;;;;;;30.50;39.18;94556.81;4990041;28;20466;-86
2023/07/29 09:16:24;;;;;;;1.77;1.50;;;;;;;30.24;38.41;94563.84;4989809;28;20109;-84
2023/07/29 09:18:51;;;;;;;1.40;1.30;;;;;;;30.33;37.97;94562.03;4989646;28;20085;-86
2023/07/29 09:21:26;;;;;;;1.45;1.35;;;;;;;30.26;36.93;94556.28;5007643;28;20487;-84
2023/07/29 09:23:52;;;;;;;0.90;0.90;;;;;;;30.83;35.58;94555.44;4989583;28;20117;-91
2023/07/29 09:26:25;;;;;;;1.65;1.15;;;;;;;30.50;37.94;94559.50;4990254;28;20134;-89
2023/07/29 09:28:58;;;;;;;1.58;1.17;;;;;;;29.93;37.34;94562.94;5010205;28;20029;-86
2023/07/29 09:31:27;;;;;;;1.20;1.10;;;;;;;30.54;38.91;94548.97;4993110;28;20030;-85
2023/07/29 09:34:00;;;;;;;0.80;0.77;;;;;;;30.83;35.27;94543.94;5011460;28;20030;-87
2023/07/29 09:36:26;;;;;;;0.50;0.50;;;;;;;30.90;35.37;94551.53;4992825;28;20457;-88
2023/07/29 09:38:55;;;;;;;1.60;0.85;;;;;;;31.36;36.30;94546.56;4994032;28;20030;-89
2023/07/29 09:41:25;;;;;;;0.70;0.70;;;;;;;31.34;36.52;94554.88;4992613;28;20491;-87
2023/07/29 09:43:59;;;;;;;0.80;0.80;;;;;;;31.26;35.00;94544.16;4977559;28;20120;-87
2023/07/29 09:46:26;;;;;;;2.17;0.90;;;;;;;31.33;36.21;94556.00;4992958;28;20482;-87
2023/07/29 09:48:54;;;;;;;1.08;0.98;;;;;;;31.39;37.82;94550.50;4994220;28;20099;-87
2023/07/29 09:51:19;;;;;;;;;;;;;;;31.13;34.68;94553.88;5011683;28;20117;-87
2023/07/29 09:53:46;;;;;;;1.40;0.90;;;;;;;30.77;36.42;94545.97;4976416;28;20462;-86
2023/07/29 09:56:13;;;;;;;1.00;0.90;;;;;;;30.52;36.94;94541.25;4993635;28;20339;-86
2023/07/29 09:58:39;;;;;;;3.10;1.00;;;;;;;31.11;36.41;94533.88;4992435;28;20445;-85
2023/07/29 10:01:08;;;;;;;0.85;0.60;;;;;;;30.42;36.22;94546.84;4993341;28;20084;-86
2023/07/29 10:03:35;;;;;;;0.75;0.75;;;;;;;30.65;36.61;94537.72;4987515;28;20069;-84
2023/07/29 10:06:05;;;;;;;1.02;0.93;;;;;;;29.81;37.01;94537.53;5010845;28;20057;-85
2023/07/29 10:08:40;;;;;;;1.17;1.00;;;;;;;29.92;38.11;94529.31;4995965;28;20017;-92
2023/07/29 10:11:07;;;;;;;1.50;1.08;;;;;;;30.22;38.13;94529.38;5013168;28;20037;-86
2023/07/29 10:13:33;;;;;;;1.98;0.90;;;;;;;30.76;35.73;94533.66;5012444;28;20509;-86
2023/07/29 10:16:02;;;;;;;1.23;0.85;;;;;;;29.98;38.05;94531.56;5011286;28;20030;-83
2023/07/29 10:18:28;;;;;;;0.73;0.65;;;;;;;30.67;36.79;94519.47;4996699;28;20475;-90
2023/07/29 10:20:54;;;;;;;1.70;0.68;;;;;;;30.65;36.17;94519.00;5011548;28;20029;-88
2023/07/29 10:23:21;;;;;;;0.75;0.55;;;;;;;30.53;36.56;94526.00;5019728;28;20022;-84
2023/07/29 10:25:55;;;;;;;0.85;0.70;;;;;;;30.69;37.16;94516.50;5017279;28;20469;-86
2023/07/29 10:28:23;;;;;;;0.52;0.52;;;;;;;30.81;36.21;94512.16;5012096;28;20030;-85
2023/07/29 10:30:49;;;;;;;;;;;;;;;31.14;36.86;94509.16;5012936;28;20108;-86
2023/07/29 10:33:14;;;;;;;0.67;0.50;;;;;;;30.95;36.53;94503.22;4994504;28;19913;-85
2023/07/29 10:35:40;;;;;;;2.50;0.65;;;;;;;30.24;36.07;94510.38;5030826;28;20037;-85
2023/07/29 10:38:06;;;;;;;0.55;0.55;;;;;;;30.50;34.79;94511.38;5010745;28;20451;-90
2023/07/29 10:41:07;;;;;;;0.50;0.50;;;;;;;30.47;36.22;94501.25;5011792;28;20082;-84
2023/07/29 10:43:33;;;;;;;0.40;0.40;;;;;;;30.09;34.57;94505.38;4933016;29;20441;-88
2023/07/29 10:46:18;;;;;;;0.50;0.40;;;;;;;30.51;34.75;94488.84;4994809;28;20037;-84
2023/07/29 10:48:51;;;;;;;0.88;0.47;;;;;;;30.45;35.47;94486.63;5029807;28;20041;-85
2023/07/29 10:51:29;;;;;;;0.40;0.40;;;;;;;30.62;35.75;94486.72;5029018;28;20408;-85
2023/07/29 10:53:58;;;;;;;0.63;0.63;;;;;;;30.12;35.07;94481.50;5029086;28;20021;-84
2023/07/29 10:56:32;;;;;;;0.40;0.40;;;;;;;30.04;35.14;94484.13;5029166;28;20029;-91
2023/07/29 10:59:19;;;;;;;0.60;0.60;;;;;;;29.90;36.12;94475.38;4994234;28;20404;-87
2023/07/29 11:02:17;;;;;;;0.75;0.60;;;;;;;30.65;36.21;94470.84;5029630;28;20031;-84
2023/07/29 11:04:52;;;;;;;0.65;0.65;;;;;;;30.34;36.69;94456.66;5028882;28;20095;-85
2023/07/29 11:07:17;;;;;;;0.75;0.75;;;;;;;30.36;36.92;94462.47;4994635;28;20403;-86
2023/07/29 11:09:49;;;;;;;0.50;0.50;;;;;;;29.86;34.51;94467.19;5011211;28;20021;-84
2023/07/29 11:12:51;;;;;;;0.50;0.50;;;;;;;30.11;34.84;94465.78;5028219;28;20032;-84
2023/07/29 11:15:21;;;;;;;1.35;0.50;;;;;;;30.87;36.57;94464.63;5011746;28;20030;-84
2023/07/29 11:17:50;;;;;;;0.70;0.52;;;;;;;30.51;35.92;94459.44;5010895;28;20503;-84
2023/07/29 11:20:20;;;;;;;1.05;0.90;;;;;;;30.56;37.25;94448.63;5028342;28;20113;-84
2023/07/29 11:22:45;;;;;;;0.60;0.55;;;;;;;30.43;34.73;94465.53;5010932;28;20384;-86
2023/07/29 11:25:13;;;;;;;0.50;0.50;;;;;;;30.74;36.02;94460.16;5010057;28;20040;-84
2023/07/29 11:27:39;;;;;;;0.50;0.50;;;;;;;31.28;36.13;94456.25;5011569;28;20029;-81
2023/07/29 11:30:09;;;;;;;0.88;0.60;;;;;;;31.40;35.78;94456.47;5009938;28;20080;-86
2023/07/29 11:32:36;;;;;;;0.65;0.63;;;;;;;30.50;35.36;94444.50;5011173;28;20021;-84
2023/07/29 11:35:07;;;;;;;0.57;0.57;;;;;;;31.16;35.74;94445.38;5010183;28;20490;-89
2023/07/29 11:37:36;;;;;;;1.20;0.75;;;;;;;31.05;35.44;94438.75;4994169;28;20376;-83
2023/07/29 11:40:02;;;;;;;0.70;0.70;;;;;;;30.95;35.32;94437.16;4994334;28;20036;-83
2023/07/29 11:42:28;;;;;;;1.65;0.90;;;;;;;31.18;35.06;94443.94;5010108;28;20079;-89
2023/07/29 11:44:56;;;;;;;2.65;0.73;;;;;;;31.03;35.09;94432.91;5011018;28;20029;-84
2023/07/29 11:47:21;;;;;;;7.78;1.17;;;;;;;30.83;35.54;94431.56;5010702;28;20384;-85
2023/07/29 11:49:47;;;;;;;1.15;0.77;;;;;;;30.46;36.10;94434.72;5010196;28;20116;-82
2023/07/29 11:52:12;;;;;;;0.73;0.73;;;;;;;30.82;36.04;94420.06;5009822;28;20049;-83